Time;durP1;ratioP1;P1;durP2;ratioP2;P2;SDS_P1;SDS_P2;PMS_P1;PMS_P2;Temp;Humidity;BMP_temperature;BMP_pressure;BME280_temperature;BME280_humidity;BME280_pressure;Samples;Min_cycle;Max_cycle;Signal;HPM_P1;HPM_P2
2023/08/12 00:00:21;;;;;;;8.40;4.57;;;18.60;99.90;;;;;;5050817;28;20498;-76
2023/08/12 00:02:47;;;;;;;8.30;4.65;;;19.70;99.90;;;;;;5019852;28;20503;-76
2023/08/12 00:05:13;;;;;;;8.27;4.93;;;19.30;99.90;;;;;;5029055;28;20503;-76
2023/08/12 00:07:43;;;;;;;8.30;4.73;;;19.60;99.90;;;;;;5052184;28;20447;-75
2023/08/12 00:10:10;;;;;;;9.13;4.90;;;19.00;99.90;;;;;;5037236;28;20414;-75
2023/08/12 00:12:37;;;;;;;8.48;4.88;;;19.60;99.90;;;;;;5025481;28;20464;-75
2023/08/12 00:15:06;;;;;;;9.03;5.07;;;19.50;99.90;;;;;;5044377;28;20502;-76
2023/08/12 00:17:32;;;;;;;10.43;4.80;;;19.50;99.90;;;;;;5068523;28;20407;-75
2023/08/12 00:19:57;;;;;;;8.20;5.20;;;19.40;99.90;;;;;;5069969;28;20414;-76
2023/08/12 00:22:23;;;;;;;9.93;5.00;;;19.40;99.90;;;;;;5045922;28;20419;-75
2023/08/12 00:24:49;;;;;;;8.90;5.20;;;19.40;99.90;;;;;;5053494;28;20428;-76
2023/08/12 00:27:15;;;;;;;9.00;5.20;;;19.50;99.90;;;;;;5058170;28;20416;-75
2023/08/12 00:29:40;;;;;;;9.23;4.93;;;19.50;99.90;;;;;;5034175;28;20397;-76
2023/08/12 00:32:08;;;;;;;11.70;5.33;;;19.60;99.90;;;;;;5063728;28;20416;-75
2023/08/12 00:34:33;;;;;;;9.27;5.47;;;17.90;99.90;;;;;;5071436;28;20404;-76
2023/08/12 00:36:59;;;;;;;12.75;5.55;;;19.50;99.90;;;;;;5071488;28;20445;-76
2023/08/12 00:39:25;;;;;;;8.37;5.63;;;19.50;99.90;;;;;;5050516;28;20503;-75
2023/08/12 00:41:51;;;;;;;10.88;5.70;;;19.80;99.90;;;;;;5049936;28;20987;-75
2023/08/12 00:44:16;;;;;;;9.25;5.65;;;19.40;99.90;;;;;;5058870;28;20520;-75
2023/08/12 00:46:43;;;;;;;8.75;5.38;;;19.70;99.90;;;;;;5064681;28;20422;-75
2023/08/12 00:49:09;;;;;;;13.43;5.85;;;19.50;99.90;;;;;;5073455;28;20395;-77
2023/08/12 00:51:35;;;;;;;11.70;5.53;;;19.30;99.90;;;;;;5053506;28;20418;-76
2023/08/12 00:54:05;;;;;;;8.93;5.40;;;19.60;99.90;;;;;;5037624;28;20739;-75
2023/08/12 00:56:31;;;;;;;10.90;5.88;;;18.00;99.90;;;;;;5030608;28;20932;-75
2023/08/12 00:58:59;;;;;;;10.88;6.15;;;17.20;99.90;;;;;;5070485;28;20403;-76
2023/08/12 01:01:26;;;;;;;10.70;6.15;;;19.40;99.90;;;;;;5047705;28;20412;-75
2023/08/12 01:03:52;;;;;;;10.32;5.78;;;19.30;99.90;;;;;;5060080;28;20429;-75
2023/08/12 01:06:18;;;;;;;10.57;5.72;;;19.10;99.90;;;;;;5071102;28;20768;-75
2023/08/12 01:08:44;;;;;;;10.68;5.80;;;19.20;99.90;;;;;;5074630;28;20795;-75
2023/08/12 01:11:21;;;;;;;9.82;6.10;;;19.00;99.90;;;;;;5056539;28;20415;-75
2023/08/12 01:14:00;;;;;;;9.45;5.80;;;19.20;99.90;;;;;;5042146;28;20431;-75
2023/08/12 01:16:30;;;;;;;11.07;5.97;;;18.90;99.90;;;;;;5071403;28;20411;-75
2023/08/12 01:18:56;;;;;;;9.52;6.22;;;19.00;99.90;;;;;;5072029;28;20418;-75
2023/08/12 01:21:24;;;;;;;11.20;6.55;;;19.00;99.90;;;;;;5037500;28;20907;-75
2023/08/12 01:23:50;;;;;;;10.88;6.45;;;19.10;99.90;;;;;;5068972;28;20475;-75
2023/08/12 01:26:16;;;;;;;12.57;6.63;;;20.30;99.90;;;;;;5074785;28;20508;-76
2023/08/12 01:28:42;;;;;;;9.83;6.40;;;19.20;99.90;;;;;;5044711;28;20510;-74
2023/08/12 01:31:43;;;;;;;14.02;6.35;;;19.10;99.90;;;;;;5053527;28;20404;-74
2023/08/12 01:34:34;;;;;;;12.15;6.57;;;19.00;99.90;;;;;;5023462;28;20423;-76
2023/08/12 01:37:05;;;;;;;10.80;6.80;;;18.90;99.90;;;;;;5034248;28;20541;-75
2023/08/12 01:39:35;;;;;;;11.70;6.53;;;18.80;99.90;;;;;;5071671;28;20415;-75
2023/08/12 01:42:01;;;;;;;12.35;7.15;;;18.80;99.90;;;;;;5022651;28;20477;-76
2023/08/12 01:44:28;;;;;;;11.68;6.95;;;18.80;99.90;;;;;;5069552;28;20427;-75
2023/08/12 01:46:55;;;;;;;10.77;6.90;;;18.90;99.90;;;;;;5051606;28;20500;-75
2023/08/12 01:49:23;;;;;;;12.35;7.13;;;18.80;99.90;;;;;;5072461;28;20438;-74
2023/08/12 01:51:48;;;;;;;13.23;7.65;;;18.80;99.90;;;;;;5039729;28;20407;-75
2023/08/12 01:54:14;;;;;;;12.07;7.63;;;18.80;99.90;;;;;;5027398;28;20424;-75
2023/08/12 01:56:40;;;;;;;13.32;7.90;;;18.70;99.90;;;;;;5046691;28;20573;-74
2023/08/12 01:59:06;;;;;;;10.17;7.67;;;18.60;99.90;;;;;;5059474;28;20920;-75
2023/08/12 02:01:31;;;;;;;16.30;8.63;;;18.70;99.90;;;;;;5072451;28;20906;-75
2023/08/12 02:03:57;;;;;;;14.05;7.78;;;18.40;99.90;;;;;;5066521;28;20421;-74
2023/08/12 02:06:23;;;;;;;18.97;8.60;;;18.40;99.90;;;;;;5039598;28;20423;-74
2023/08/12 02:08:48;;;;;;;14.17;8.00;;;18.70;99.90;;;;;;5056397;28;20787;-74
2023/08/12 02:11:14;;;;;;;14.38;8.05;;;18.60;99.90;;;;;;5053693;28;20504;-74
2023/08/12 02:13:40;;;;;;;14.07;8.23;;;18.60;99.90;;;;;;5055259;28;20427;-75
2023/08/12 02:16:05;;;;;;;13.47;8.40;;;18.60;99.90;;;;;;5036495;28;20429;-75
2023/08/12 02:18:31;;;;;;;13.55;8.30;;;18.60;99.90;;;;;;5054165;28;20398;-75
2023/08/12 02:20:57;;;;;;;14.65;8.43;;;18.90;99.90;;;;;;5019562;28;20483;-75
2023/08/12 02:23:22;;;;;;;16.20;8.73;;;18.70;99.90;;;;;;5023519;28;20450;-75
2023/08/12 02:25:48;;;;;;;12.52;8.27;;;18.50;99.90;;;;;;5066763;28;20911;-74
2023/08/12 02:28:14;;;;;;;15.88;8.60;;;18.60;99.90;;;;;;5033186;28;20426;-75
2023/08/12 02:30:42;;;;;;;14.10;8.20;;;18.70;99.90;;;;;;5073430;28;20403;-75
2023/08/12 02:33:08;;;;;;;12.30;7.97;;;18.60;99.90;;;;;;5072394;28;20403;-74
2023/08/12 02:35:34;;;;;;;13.30;8.68;;;18.50;99.90;;;;;;5055060;28;20442;-75
2023/08/12 02:38:00;;;;;;;15.63;9.07;;;18.80;99.90;;;;;;5054648;28;20409;-75
2023/08/12 02:40:25;;;;;;;14.03;8.50;;;18.70;99.90;;;;;;5072132;28;20412;-75
2023/08/12 02:42:51;;;;;;;14.48;8.98;;;19.00;99.90;;;;;;5070761;28;20412;-75
2023/08/12 02:45:17;;;;;;;15.45;9.45;;;18.70;99.90;;;;;;5070643;28;20428;-75
2023/08/12 02:47:42;;;;;;;12.97;8.87;;;18.70;99.90;;;;;;5055437;28;20757;-75
2023/08/12 02:50:08;;;;;;;12.13;8.20;;;18.60;99.90;;;;;;5073072;28;20751;-75
2023/08/12 02:52:35;;;;;;;13.30;8.32;;;18.50;99.90;;;;;;5037697;28;20908;-74
2023/08/12 02:55:01;;;;;;;13.55;9.00;;;19.90;99.90;;;;;;5058432;28;20432;-75
2023/08/12 02:57:26;;;;;;;15.77;9.53;;;18.70;99.90;;;;;;5038909;28;20427;-76
2023/08/12 02:59:52;;;;;;;12.00;8.83;;;18.60;99.90;;;;;;5072859;28;20399;-75
2023/08/12 03:02:18;;;;;;;14.32;9.68;;;18.80;99.90;;;;;;5053426;28;20849;-75
2023/08/12 03:04:44;;;;;;;15.90;9.98;;;18.40;99.90;;;;;;5069849;28;20430;-75
2023/08/12 03:07:09;;;;;;;17.23;10.43;;;18.50;99.90;;;;;;5034353;28;20453;-75
2023/08/12 03:09:35;;;;;;;15.63;9.63;;;18.60;99.90;;;;;;5024940;28;20417;-75
2023/08/12 03:12:03;;;;;;;15.65;9.68;;;18.50;99.90;;;;;;5065893;28;20904;-75
2023/08/12 03:14:30;;;;;;;15.48;9.50;;;18.80;99.90;;;;;;5034130;28;20440;-75
2023/08/12 03:16:55;;;;;;;14.47;9.60;;;18.50;99.90;;;;;;5072647;28;20461;-75
2023/08/12 03:19:21;;;;;;;17.27;10.37;;;18.60;99.90;;;;;;5033699;28;20417;-75
2023/08/12 03:21:47;;;;;;;16.27;10.50;;;18.60;99.90;;;;;;5053729;28;20435;-75
2023/08/12 03:24:12;;;;;;;19.33;10.57;;;18.60;99.90;;;;;;5051829;28;20435;-75
2023/08/12 03:26:38;;;;;;;16.13;10.53;;;18.80;99.90;;;;;;5036515;28;20426;-75
2023/08/12 03:29:04;;;;;;;17.48;10.60;;;18.50;99.90;;;;;;5071598;28;20400;-75
2023/08/12 03:31:29;;;;;;;17.30;10.32;;;18.50;99.90;;;;;;5054292;28;20408;-75
2023/08/12 03:33:55;;;;;;;17.27;10.90;;;18.60;99.90;;;;;;5045006;28;20411;-75
2023/08/12 03:36:21;;;;;;;15.93;10.77;;;18.60;99.90;;;;;;5067085;28;20450;-75
2023/08/12 03:38:46;;;;;;;17.20;10.57;;;18.70;99.90;;;;;;5037051;28;20423;-75
2023/08/12 03:41:13;;;;;;;19.70;11.13;;;18.50;99.90;;;;;;5054040;28;20435;-75
2023/08/12 03:43:38;;;;;;;17.02;11.63;;;18.50;99.90;;;;;;5036841;28;20438;-75
2023/08/12 03:46:05;;;;;;;17.57;10.83;;;18.80;99.90;;;;;;5066561;28;20900;-75
2023/08/12 03:48:30;;;;;;;16.10;11.20;;;18.50;99.90;;;;;;5054057;28;20946;-75
2023/08/12 03:50:56;;;;;;;19.30;11.60;;;18.50;99.90;;;;;;5069921;28;20439;-76
2023/08/12 03:53:22;;;;;;;18.88;11.77;;;18.60;99.90;;;;;;5067066;28;20422;-75
2023/08/12 03:55:47;;;;;;;17.95;11.63;;;18.50;99.90;;;;;;5052580;28;20498;-75
2023/08/12 03:58:13;;;;;;;17.90;11.50;;;18.50;99.90;;;;;;5059366;28;20840;-75
2023/08/12 04:00:45;;;;;;;19.63;12.23;;;18.50;99.90;;;;;;5023393;28;20422;-75
2023/08/12 04:03:11;;;;;;;17.58;12.15;;;18.60;99.90;;;;;;5041253;28;20411;-76
2023/08/12 04:05:36;;;;;;;18.42;11.93;;;20.70;99.90;;;;;;5066549;28;20423;-76
2023/08/12 04:08:02;;;;;;;18.20;12.23;;;18.80;99.90;;;;;;5070454;28;20469;-75
2023/08/12 04:10:29;;;;;;;18.65;12.27;;;18.80;99.90;;;;;;5052659;28;20423;-76
2023/08/12 04:12:55;;;;;;;19.83;12.37;;;18.70;99.90;;;;;;5035964;28;20433;-76
2023/08/12 04:15:21;;;;;;;20.00;12.27;;;18.80;99.90;;;;;;5058012;28;20442;-76
2023/08/12 04:17:46;;;;;;;21.60;12.70;;;18.60;99.90;;;;;;5036847;28;20460;-76
2023/08/12 04:20:12;;;;;;;20.05;12.60;;;18.60;99.90;;;;;;5035038;28;20423;-75
2023/08/12 04:22:38;;;;;;;19.97;12.80;;;18.90;99.90;;;;;;5070968;28;20441;-75
2023/08/12 04:25:04;;;;;;;21.55;12.55;;;18.80;99.90;;;;;;5052109;28;20450;-75
2023/08/12 04:27:30;;;;;;;19.42;12.32;;;18.70;99.90;;;;;;5054263;28;20417;-75
2023/08/12 04:29:55;;;;;;;20.42;12.18;;;18.90;99.90;;;;;;5049262;28;20470;-75
2023/08/12 04:32:21;;;;;;;19.38;12.02;;;18.90;99.90;;;;;;5051764;28;20422;-75
2023/08/12 04:34:47;;;;;;;22.98;13.23;;;19.10;99.90;;;;;;5033739;28;20486;-76
2023/08/12 04:37:13;;;;;;;21.47;11.90;;;18.90;99.90;;;;;;5026160;28;20925;-75
2023/08/12 04:39:40;;;;;;;18.95;12.48;;;19.00;99.90;;;;;;5033639;28;20419;-75
2023/08/12 04:42:05;;;;;;;21.35;12.40;;;18.70;99.90;;;;;;5062567;28;20408;-75
2023/08/12 04:44:31;;;;;;;19.90;12.25;;;18.00;99.90;;;;;;5052084;28;20837;-75
2023/08/12 04:46:57;;;;;;;16.85;11.52;;;18.90;99.90;;;;;;5036484;28;20917;-76
2023/08/12 04:49:23;;;;;;;22.53;13.03;;;19.00;99.90;;;;;;5052567;28;20401;-75
2023/08/12 04:51:52;;;;;;;18.25;11.57;;;18.90;99.90;;;;;;5055851;28;20473;-75
2023/08/12 04:54:18;;;;;;;18.70;12.40;;;20.80;99.90;;;;;;5069213;28;20423;-75
2023/08/12 04:56:43;;;;;;;19.37;12.47;;;18.90;99.90;;;;;;5051126;28;21136;-75
2023/08/12 04:59:10;;;;;;;18.80;12.38;;;18.90;99.90;;;;;;5035690;28;20920;-75
2023/08/12 05:01:36;;;;;;;19.50;12.77;;;18.90;99.90;;;;;;5037209;28;20427;-74
2023/08/12 05:04:02;;;;;;;18.27;11.97;;;19.00;99.90;;;;;;5049555;28;20426;-75
2023/08/12 05:06:27;;;;;;;21.55;11.73;;;17.70;99.90;;;;;;5070737;28;20474;-75
2023/08/12 05:08:53;;;;;;;19.13;11.35;;;18.90;99.90;;;;;;5045532;28;20475;-75
2023/08/12 05:11:19;;;;;;;16.25;11.48;;;19.30;99.90;;;;;;5028098;28;20433;-75
2023/08/12 05:13:44;;;;;;;17.47;11.40;;;19.10;99.90;;;;;;5036714;28;20848;-75
2023/08/12 05:16:10;;;;;;;18.33;11.63;;;19.20;99.90;;;;;;5032320;28;20498;-76
2023/08/12 05:18:36;;;;;;;18.65;11.52;;;19.20;99.90;;;;;;5027239;28;20554;-75
2023/08/12 05:21:02;;;;;;;17.90;11.30;;;18.60;99.90;;;;;;5033489;28;20777;-75
2023/08/12 05:23:27;;;;;;;18.52;11.85;;;19.30;99.90;;;;;;5037779;28;20433;-76
2023/08/12 05:25:53;;;;;;;19.10;11.77;;;19.30;99.90;;;;;;5048641;28;20435;-76
2023/08/12 05:28:19;;;;;;;16.57;11.70;;;19.60;99.90;;;;;;5048623;28;20442;-75
2023/08/12 05:30:45;;;;;;;16.85;11.55;;;19.90;99.90;;;;;;5049584;28;20436;-74
2023/08/12 05:33:10;;;;;;;18.25;11.40;;;19.40;99.90;;;;;;5060676;28;20456;-74
2023/08/12 05:35:36;;;;;;;20.67;12.05;;;19.60;99.90;;;;;;5066044;28;20438;-74
2023/08/12 05:38:02;;;;;;;18.15;11.70;;;19.50;99.90;;;;;;5065254;28;20420;-74
2023/08/12 05:40:28;;;;;;;17.33;11.52;;;19.50;99.90;;;;;;5025208;28;20437;-75
2023/08/12 05:42:54;;;;;;;18.83;12.10;;;19.60;99.90;;;;;;5053137;28;20430;-74
2023/08/12 05:45:20;;;;;;;19.73;11.60;;;19.60;99.90;;;;;;5045790;28;20432;-76
2023/08/12 05:47:46;;;;;;;17.98;11.90;;;19.80;99.90;;;;;;5071055;28;20495;-76
2023/08/12 05:50:11;;;;;;;18.08;12.23;;;19.60;99.90;;;;;;5053293;28;21033;-75
2023/08/12 05:52:37;;;;;;;19.10;11.88;;;20.00;99.90;;;;;;5056329;28;20417;-74
2023/08/12 05:55:04;;;;;;;19.73;12.53;;;19.60;99.90;;;;;;5063839;28;20526;-76
2023/08/12 05:57:29;;;;;;;20.25;12.07;;;19.70;99.90;;;;;;5071496;28;20938;-76
2023/08/12 05:59:55;;;;;;;20.10;12.57;;;19.60;99.90;;;;;;5046084;28;20923;-75
2023/08/12 06:02:21;;;;;;;20.13;12.97;;;19.60;99.90;;;;;;5049172;28;20420;-75
2023/08/12 06:04:46;;;;;;;20.43;13.17;;;20.00;99.90;;;;;;5062302;28;20425;-75
2023/08/12 06:07:12;;;;;;;22.20;13.52;;;20.00;99.90;;;;;;5055174;28;20562;-78
2023/08/12 06:09:38;;;;;;;21.67;13.63;;;19.90;99.90;;;;;;5072724;28;20925;-78
2023/08/12 06:12:04;;;;;;;21.27;14.40;;;19.70;99.90;;;;;;5044271;28;20498;-77
2023/08/12 06:14:31;;;;;;;24.08;14.48;;;20.20;99.90;;;;;;5052107;28;20486;-78
2023/08/12 06:16:56;;;;;;;25.65;14.23;;;20.10;99.90;;;;;;5066573;28;20511;-78
2023/08/12 06:19:22;;;;;;;21.93;14.27;;;19.70;99.90;;;;;;5046314;28;20403;-77
2023/08/12 06:21:48;;;;;;;24.53;15.07;;;20.00;99.90;;;;;;5061918;28;20440;-78
2023/08/12 06:24:13;;;;;;;22.10;14.70;;;20.00;99.90;;;;;;5023623;28;20425;-77
2023/08/12 06:26:39;;;;;;;23.57;14.77;;;19.70;99.90;;;;;;5046337;28;20479;-77
2023/08/12 06:29:05;;;;;;;25.07;15.37;;;20.10;99.90;;;;;;5025843;28;20427;-78
2023/08/12 06:31:30;;;;;;;22.48;15.45;;;20.40;99.90;;;;;;5049606;28;20904;-77
2023/08/12 06:33:56;;;;;;;25.07;15.63;;;20.10;99.90;;;;;;5031509;28;20429;-78
2023/08/12 06:36:23;;;;;;;27.92;16.83;;;20.10;99.90;;;;;;5037025;28;20419;-79
2023/08/12 06:38:48;;;;;;;26.92;16.13;;;20.10;99.90;;;;;;5052332;28;20419;-78
2023/08/12 06:41:14;;;;;;;28.73;16.30;;;20.00;99.90;;;;;;5029321;28;20419;-78
2023/08/12 06:43:40;;;;;;;27.90;16.87;;;19.90;99.90;;;;;;5054731;28;20986;-78
2023/08/12 06:46:05;;;;;;;27.65;17.20;;;20.10;99.90;;;;;;5014288;28;20487;-78
2023/08/12 06:48:31;;;;;;;28.80;16.77;;;20.10;99.90;;;;;;5050881;28;20415;-78
2023/08/12 06:50:57;;;;;;;30.53;17.27;;;20.30;99.90;;;;;;5060829;28;20445;-79
2023/08/12 06:53:23;;;;;;;27.27;17.67;;;20.00;99.90;;;;;;5049199;28;20507;-79
2023/08/12 06:55:48;;;;;;;27.85;17.17;;;20.20;99.90;;;;;;5023677;28;20767;-80
2023/08/12 06:58:14;;;;;;;28.57;17.43;;;20.10;99.90;;;;;;5035965;28;20426;-79
2023/08/12 07:00:41;;;;;;;30.67;17.67;;;20.10;99.90;;;;;;5059045;28;20423;-80
2023/08/12 07:03:06;;;;;;;27.13;17.52;;;20.50;99.90;;;;;;5056815;28;20421;-79
2023/08/12 07:05:32;;;;;;;28.53;17.67;;;20.60;99.90;;;;;;5017448;28;20938;-80
2023/08/12 07:07:58;;;;;;;29.07;17.63;;;20.70;99.90;;;;;;5028156;28;20416;-80
2023/08/12 07:10:23;;;;;;;28.50;18.83;;;20.30;99.90;;;;;;5036528;28;20423;-80
2023/08/12 07:12:49;;;;;;;27.03;17.87;;;20.30;99.90;;;;;;5032496;28;20457;-80
2023/08/12 07:15:15;;;;;;;26.00;17.73;;;20.40;99.90;;;;;;5054542;28;20927;-78
2023/08/12 07:17:41;;;;;;;30.60;17.70;;;20.60;99.90;;;;;;5071488;28;20416;-78
2023/08/12 07:20:07;;;;;;;29.30;17.63;;;20.70;99.90;;;;;;5037925;28;20403;-79
2023/08/12 07:22:33;;;;;;;28.52;17.50;;;20.40;99.90;;;;;;5070395;28;20417;-79
2023/08/12 07:25:02;;;;;;;26.00;17.88;;;20.50;99.90;;;;;;5064939;28;20779;-79
2023/08/12 07:27:27;;;;;;;26.20;17.27;;;20.60;99.90;;;;;;5025431;28;20427;-79
2023/08/12 07:29:53;;;;;;;26.93;17.70;;;18.70;99.90;;;;;;5025532;28;20417;-78
2023/08/12 07:32:19;;;;;;;26.38;17.95;;;20.80;99.90;;;;;;5022582;28;20421;-79
2023/08/12 07:34:45;;;;;;;25.73;17.27;;;20.50;99.90;;;;;;5045158;28;20419;-80
2023/08/12 07:37:11;;;;;;;27.10;17.88;;;20.60;99.90;;;;;;5019310;28;20434;-78
2023/08/12 07:39:37;;;;;;;24.00;16.55;;;20.40;99.90;;;;;;5044093;28;20419;-79
2023/08/12 07:42:03;;;;;;;24.47;17.30;;;20.70;99.90;;;;;;5048871;28;20525;-77
2023/08/12 07:44:29;;;;;;;25.13;17.10;;;20.60;99.90;;;;;;5047954;28;20427;-77
2023/08/12 07:46:55;;;;;;;24.80;17.00;;;20.50;99.90;;;;;;5029976;28;20481;-76
2023/08/12 07:49:29;;;;;;;27.67;18.00;;;20.60;99.90;;;;;;5052396;28;20427;-79
2023/08/12 07:51:55;;;;;;;25.33;17.20;;;20.50;99.90;;;;;;5047637;28;21353;-78
2023/08/12 07:54:21;;;;;;;24.35;17.50;;;20.40;99.90;;;;;;5068688;28;20503;-76
2023/08/12 07:56:46;;;;;;;25.50;17.40;;;20.50;99.90;;;;;;5035801;28;20963;-77
2023/08/12 07:59:12;;;;;;;30.20;18.40;;;20.70;99.90;;;;;;5013243;28;20429;-78
2023/08/12 08:01:38;;;;;;;28.55;18.13;;;21.00;99.90;;;;;;5005780;28;21084;-78
2023/08/12 08:04:04;;;;;;;25.07;17.60;;;20.50;99.90;;;;;;5006998;28;20425;-78
2023/08/12 08:06:29;;;;;;;24.98;17.67;;;20.60;99.90;;;;;;5033569;28;20448;-77
2023/08/12 08:08:55;;;;;;;26.73;17.33;;;20.40;99.90;;;;;;5010539;28;20450;-79
2023/08/12 08:11:24;;;;;;;23.60;17.20;;;20.50;99.90;;;;;;5014606;28;20912;-77
2023/08/12 08:13:49;;;;;;;27.67;17.75;;;21.10;99.90;;;;;;5009547;28;20788;-77
2023/08/12 08:16:15;;;;;;;25.83;18.10;;;21.00;99.90;;;;;;4987733;28;20489;-78
2023/08/12 08:18:41;;;;;;;27.33;18.10;;;20.60;99.90;;;;;;4982707;28;20419;-78
2023/08/12 08:21:06;;;;;;;25.35;17.23;;;20.60;99.90;;;;;;5021884;28;20498;-77
2023/08/12 08:23:32;;;;;;;26.00;17.50;;;20.80;99.90;;;;;;5029571;28;20452;-78
2023/08/12 08:25:58;;;;;;;27.27;17.87;;;20.60;99.90;;;;;;5019025;28;20747;-77
2023/08/12 08:28:23;;;;;;;26.17;17.47;;;20.80;99.90;;;;;;5003471;28;20426;-77
2023/08/12 08:30:49;;;;;;;24.80;18.00;;;20.60;99.90;;;;;;4980538;28;20431;-77
2023/08/12 08:33:15;;;;;;;24.50;17.87;;;20.70;99.90;;;;;;5030477;28;20471;-78
2023/08/12 08:35:41;;;;;;;30.38;19.05;;;20.90;99.90;;;;;;4999305;28;20780;-78
2023/08/12 08:38:06;;;;;;;32.65;20.77;;;20.80;99.90;;;;;;5011498;28;20921;-79
2023/08/12 08:40:32;;;;;;;30.07;20.93;;;20.70;99.90;;;;;;5022483;28;20512;-80
2023/08/12 08:43:03;;;;;;;36.77;22.33;;;20.40;99.90;;;;;;5032160;28;20440;-79
2023/08/12 08:45:32;;;;;;;32.83;22.58;;;20.60;99.90;;;;;;5028971;28;20421;-79
2023/08/12 08:48:00;;;;;;;34.72;23.48;;;20.50;99.90;;;;;;5030632;28;20426;-79
2023/08/12 08:50:28;;;;;;;35.13;23.73;;;20.50;99.90;;;;;;5000838;28;20415;-79
2023/08/12 08:52:55;;;;;;;38.85;24.73;;;20.90;99.90;;;;;;5030137;28;20932;-79
2023/08/12 08:55:22;;;;;;;36.83;25.15;;;20.30;99.90;;;;;;5037404;28;20926;-79
2023/08/12 08:57:49;;;;;;;37.95;25.27;;;20.40;99.90;;;;;;5052163;28;20791;-78
2023/08/12 09:00:18;;;;;;;37.33;25.17;;;20.40;99.90;;;;;;5034679;28;20430;-78
2023/08/12 09:02:47;;;;;;;38.85;26.27;;;20.50;99.90;;;;;;5044448;28;20450;-78
2023/08/12 09:05:14;;;;;;;41.88;26.70;;;20.40;99.90;;;;;;5024308;28;20429;-79
2023/08/12 09:07:41;;;;;;;43.38;28.15;;;20.50;99.90;;;;;;5024388;28;20397;-79
2023/08/12 09:10:08;;;;;;;46.92;28.23;;;20.50;99.90;;;;;;5026985;28;20738;-80
2023/08/12 09:12:34;;;;;;;48.75;29.00;;;20.90;99.90;;;;;;5062319;28;20916;-80
2023/08/12 09:15:00;;;;;;;53.85;29.83;;;20.80;99.90;;;;;;5065309;28;20420;-80
2023/08/12 09:17:26;;;;;;;45.08;29.10;;;20.60;99.90;;;;;;5045082;28;20463;-79
2023/08/12 09:19:51;;;;;;;46.60;28.73;;;20.60;99.90;;;;;;5038088;28;20432;-81
2023/08/12 09:22:18;;;;;;;40.80;27.23;;;20.70;99.90;;;;;;5047847;28;20429;-80
2023/08/12 09:24:44;;;;;;;42.10;27.02;;;20.50;99.90;;;;;;5055176;28;20473;-79
2023/08/12 09:27:10;;;;;;;37.57;26.80;;;20.70;99.90;;;;;;5046651;28;20423;-79
2023/08/12 09:29:36;;;;;;;36.08;25.70;;;20.80;99.90;;;;;;5064262;28;20415;-80
2023/08/12 09:32:19;;;;;;;38.03;24.40;;;20.70;99.90;;;;;;5045469;28;20904;-80
2023/08/12 09:34:53;;;;;;;33.22;24.17;;;20.80;99.90;;;;;;5044987;28;20444;-80
2023/08/12 09:37:20;;;;;;;30.65;20.98;;;20.80;99.90;;;;;;5031649;28;20478;-80
2023/08/12 09:39:48;;;;;;;29.30;20.63;;;20.60;99.90;;;;;;5043603;28;20459;-81
2023/08/12 09:42:14;;;;;;;26.55;20.40;;;20.60;99.90;;;;;;5032696;28;21243;-80
2023/08/12 09:44:41;;;;;;;27.25;19.92;;;20.40;99.90;;;;;;5046816;28;20877;-82
2023/08/12 09:47:08;;;;;;;24.70;18.13;;;20.50;99.90;;;;;;5043824;28;20477;-82
2023/08/12 09:49:35;;;;;;;25.00;19.13;;;20.60;99.90;;;;;;5047046;28;20814;-81
2023/08/12 09:52:03;;;;;;;23.38;17.35;;;20.60;99.90;;;;;;5045141;28;20969;-81
2023/08/12 09:54:31;;;;;;;22.37;16.70;;;20.60;99.90;;;;;;5024539;28;20795;-82
2023/08/12 09:56:59;;;;;;;21.38;15.75;;;20.60;99.90;;;;;;5038163;28;20503;-82
2023/08/12 09:59:30;;;;;;;21.42;15.55;;;20.70;99.90;;;;;;5065264;28;20422;-81
2023/08/12 10:01:57;;;;;;;20.10;14.98;;;20.50;99.90;;;;;;5049896;28;20427;-81
2023/08/12 10:04:27;;;;;;;19.85;15.07;;;20.60;99.90;;;;;;5046097;28;20425;-80
2023/08/12 10:06:53;;;;;;;20.98;15.75;;;20.70;99.90;;;;;;5056604;28;20472;-82
2023/08/12 10:09:20;;;;;;;23.08;15.00;;;20.60;99.90;;;;;;5028513;28;20415;-81
2023/08/12 10:11:47;;;;;;;25.90;15.63;;;20.80;99.90;;;;;;5037905;28;20422;-80
2023/08/12 10:14:14;;;;;;;21.25;14.77;;;20.50;99.90;;;;;;5031801;28;20843;-79
2023/08/12 10:16:45;;;;;;;21.17;14.10;;;20.50;99.90;;;;;;5018706;28;20417;-81
2023/08/12 10:19:12;;;;;;;20.40;13.15;;;20.60;99.90;;;;;;5031600;28;20855;-80
2023/08/12 10:21:38;;;;;;;14.68;11.80;;;20.70;99.90;;;;;;5043317;28;20920;-79
2023/08/12 10:24:06;;;;;;;13.15;10.50;;;20.30;99.90;;;;;;5050342;28;20429;-80
2023/08/12 10:26:32;;;;;;;12.43;9.83;;;20.30;99.90;;;;;;5052819;28;20419;-80
2023/08/12 10:29:00;;;;;;;14.30;11.20;;;20.40;99.90;;;;;;5048905;28;20415;-80
2023/08/12 10:31:30;;;;;;;14.23;10.43;;;20.50;99.90;;;;;;5031402;28;20419;-80
2023/08/12 10:33:57;;;;;;;12.17;8.83;;;20.60;99.90;;;;;;5050298;28;20458;-80
2023/08/12 10:36:23;;;;;;;11.40;9.07;;;20.50;99.90;;;;;;5038140;28;20522;-80
2023/08/12 10:38:49;;;;;;;12.48;9.73;;;20.60;99.90;;;;;;5040635;28;20501;-79
2023/08/12 10:41:19;;;;;;;11.13;8.90;;;20.50;99.90;;;;;;5039862;28;20891;-79
2023/08/12 10:43:56;;;;;;;9.48;7.82;;;20.90;99.90;;;;;;5033014;28;20431;-78
2023/08/12 10:46:23;;;;;;;8.98;7.00;;;20.80;99.90;;;;;;5034963;28;20418;-80
2023/08/12 10:49:07;;;;;;;10.20;7.70;;;21.10;99.90;;;;;;5050002;28;20416;-79
2023/08/12 10:51:50;;;;;;;9.52;6.50;;;20.80;99.90;;;;;;5030001;28;20410;-80
2023/08/12 10:54:16;;;;;;;7.50;6.27;;;20.60;99.90;;;;;;5040228;28;21016;-80
2023/08/12 10:57:01;;;;;;;11.43;5.53;;;20.60;99.90;;;;;;5036040;28;20412;-78
2023/08/12 10:59:45;;;;;;;7.13;4.75;;;20.50;99.90;;;;;;5049159;28;20431;-78
2023/08/12 11:02:32;;;;;;;5.72;3.75;;;20.50;99.90;;;;;;5031104;28;20926;-79
2023/08/12 11:05:07;;;;;;;4.80;3.40;;;20.50;99.90;;;;;;5028942;28;20427;-79
2023/08/12 11:07:44;;;;;;;5.85;3.92;;;20.30;99.90;;;;;;5046500;28;20415;-79
2023/08/12 11:10:14;;;;;;;6.50;3.63;;;20.40;99.90;;;;;;5045325;28;20420;-80
2023/08/12 11:12:45;;;;;;;5.63;3.50;;;20.40;99.90;;;;;;5029471;28;20949;-81
2023/08/12 11:15:12;;;;;;;4.20;2.90;;;20.60;99.90;;;;;;5045473;28;20420;-79
2023/08/12 11:17:40;;;;;;;3.38;2.40;;;20.80;99.90;;;;;;5050479;28;20539;-81
2023/08/12 11:20:09;;;;;;;4.47;2.58;;;20.10;99.90;;;;;;5039325;28;20575;-81
2023/08/12 11:22:44;;;;;;;5.85;3.20;;;19.70;99.90;;;;;;5037246;28;20443;-80
2023/08/12 11:25:12;;;;;;;5.72;3.80;;;19.60;99.90;;;;;;5034200;28;20424;-82
2023/08/12 11:27:43;;;;;;;7.88;3.60;;;19.10;99.90;;;;;;5042258;28;20562;-82
2023/08/12 11:30:10;;;;;;;7.13;3.83;;;18.80;99.90;;;;;;5028483;28;20525;-82
2023/08/12 11:32:38;;;;;;;7.38;3.72;;;18.70;99.90;;;;;;5015401;28;20455;-82
2023/08/12 11:35:07;;;;;;;9.32;3.90;;;18.90;99.90;;;;;;5045626;28;20413;-82
2023/08/12 11:37:33;;;;;;;8.68;4.30;;;19.00;99.90;;;;;;5044640;28;20454;-82
2023/08/12 11:39:58;;;;;;;8.57;4.28;;;18.80;99.90;;;;;;5042316;28;20428;-83
2023/08/12 11:42:24;;;;;;;8.43;3.80;;;18.50;99.90;;;;;;5045586;28;20964;-84
2023/08/12 11:44:50;;;;;;;8.98;4.40;;;18.50;99.90;;;;;;5029808;28;20427;-85
2023/08/12 11:47:16;;;;;;;13.43;4.60;;;18.60;99.90;;;;;;5028242;28;20423;-84
2023/08/12 11:49:42;;;;;;;8.35;4.35;;;18.60;99.90;;;;;;5046656;28;20954;-82
2023/08/12 11:52:09;;;;;;;8.23;3.90;;;18.80;99.90;;;;;;5050052;28;20427;-82
2023/08/12 11:54:35;;;;;;;9.93;3.85;;;18.50;99.90;;;;;;5046080;28;20428;-83
2023/08/12 11:57:01;;;;;;;6.43;3.53;;;18.50;99.90;;;;;;5028247;28;20941;-83
2023/08/12 11:59:27;;;;;;;7.03;4.00;;;18.70;99.90;;;;;;5040168;28;20520;-83
2023/08/12 12:01:54;;;;;;;10.98;3.97;;;18.50;99.90;;;;;;5045286;28;20890;-83
2023/08/12 12:04:21;;;;;;;7.45;3.38;;;18.50;99.90;;;;;;5033275;28;20424;-84
2023/08/12 12:06:48;;;;;;;6.17;3.20;;;19.10;99.90;;;;;;5047357;28;20421;-84
2023/08/12 12:09:15;;;;;;;10.52;3.70;;;19.10;99.90;;;;;;5049618;28;20442;-85
2023/08/12 12:11:41;;;;;;;7.70;2.95;;;19.20;99.90;;;;;;5006555;28;20486;-85
2023/08/12 12:14:09;;;;;;;9.00;3.50;;;19.30;99.90;;;;;;5043692;28;20456;-83
2023/08/12 12:16:46;;;;;;;8.73;3.20;;;19.40;99.90;;;;;;5049801;28;20434;-83
2023/08/12 12:19:19;;;;;;;5.80;3.22;;;19.50;99.90;;;;;;5036086;28;20432;-79
2023/08/12 12:21:50;;;;;;;7.37;3.23;;;19.50;99.90;;;;;;5027429;28;20484;-79
2023/08/12 12:24:17;;;;;;;7.07;2.70;;;19.80;99.90;;;;;;5047354;28;20943;-80
2023/08/12 12:26:43;;;;;;;6.43;2.83;;;19.90;99.90;;;;;;5035044;28;20514;-79
2023/08/12 12:29:11;;;;;;;8.57;3.42;;;20.30;99.90;;;;;;5031583;28;20927;-79
2023/08/12 12:31:38;;;;;;;10.98;3.22;;;19.90;99.90;;;;;;5031460;28;20434;-78